createdAt,value
2022-10-29T00:00:54.708Z,5.72
2022-10-29T00:03:22.008Z,5.65
2022-10-29T00:05:56.790Z,5.22
2022-10-29T00:08:23.506Z,4.55
2022-10-29T00:10:50.167Z,5.90
2022-10-29T00:13:16.848Z,5.50
2022-10-29T00:15:43.756Z,6.03
2022-10-29T00:18:10.399Z,5.28
2022-10-29T00:20:37.045Z,5.60
2022-10-29T00:23:03.744Z,6.05
2022-10-29T00:25:30.404Z,6.50
2022-10-29T00:27:57.140Z,5.63
2022-10-29T00:30:26.562Z,5.50
2022-10-29T00:32:53.389Z,5.90
2022-10-29T00:35:20.162Z,5.55
2022-10-29T00:37:46.798Z,5.38
2022-10-29T00:40:13.453Z,6.60
2022-10-29T00:42:40.160Z,6.47
2022-10-29T00:45:13.371Z,6.32
2022-10-29T00:47:40.868Z,5.22
2022-10-29T00:50:12.747Z,5.30
2022-10-29T00:52:44.625Z,5.15
2022-10-29T00:55:15.338Z,5.68
2022-10-29T00:57:48.701Z,5.20
2022-10-29T01:00:17.257Z,5.40
2022-10-29T01:02:45.471Z,5.43
2022-10-29T01:05:18.916Z,5.53
2022-10-29T01:07:46.814Z,5.72
2022-10-29T01:10:15.355Z,5.47
2022-10-29T01:13:18.415Z,4.90
2022-10-29T01:16:04.144Z,5.00
2022-10-29T01:18:38.469Z,5.40
2022-10-29T01:21:11.395Z,5.22
2022-10-29T01:23:54.052Z,4.85
2022-10-29T01:26:32.343Z,5.10
2022-10-29T01:29:17.360Z,5.20
2022-10-29T01:32:07.567Z,4.88
2022-10-29T01:34:42.070Z,4.72
2022-10-29T01:37:21.093Z,4.20
2022-10-29T01:40:12.996Z,3.70
2022-10-29T01:42:44.941Z,4.45
2022-10-29T01:45:29.674Z,4.03
2022-10-29T01:48:15.468Z,2.95
2022-10-29T01:50:44.971Z,3.72
2022-10-29T01:53:12.410Z,3.80
2022-10-29T01:55:39.053Z,4.25
2022-10-29T01:58:06.890Z,3.97
2022-10-29T02:01:01.219Z,4.00
2022-10-29T02:03:40.942Z,3.22
2022-10-29T02:06:42.912Z,3.03
2022-10-29T02:09:20.587Z,2.50
2022-10-29T02:12:12.530Z,3.30
2022-10-29T02:14:46.180Z,2.55
2022-10-29T02:17:12.838Z,3.15
2022-10-29T02:19:39.593Z,3.30
2022-10-29T02:22:06.231Z,3.10
2022-10-29T02:24:32.913Z,3.28
2022-10-29T02:26:59.742Z,4.15
2022-10-29T02:29:26.454Z,3.25
2022-10-29T02:31:53.130Z,3.00
2022-10-29T02:34:19.797Z,2.95
2022-10-29T02:36:46.441Z,3.53
2022-10-29T02:39:13.202Z,3.60
2022-10-29T02:41:39.951Z,3.90
2022-10-29T02:44:06.875Z,4.45
2022-10-29T02:46:36.001Z,3.78
2022-10-29T02:49:02.846Z,3.55
2022-10-29T02:51:29.638Z,3.20
2022-10-29T02:53:56.359Z,3.58
2022-10-29T02:56:23.018Z,3.20
2022-10-29T02:58:49.700Z,3.60
2022-10-29T03:01:16.441Z,4.35
2022-10-29T03:03:43.113Z,5.40
2022-10-29T03:06:17.411Z,5.85
2022-10-29T03:08:44.434Z,5.70
2022-10-29T03:11:11.988Z,6.65
2022-10-29T03:16:10.412Z,7.57
2022-10-29T03:18:37.093Z,6.47
2022-10-29T03:21:03.968Z,6.60
2022-10-29T03:23:30.638Z,7.57
2022-10-29T03:25:57.357Z,7.45
2022-10-29T03:28:28.003Z,7.10
2022-10-29T03:30:54.728Z,6.70
2022-10-29T03:33:21.503Z,6.50
2022-10-29T03:35:48.210Z,6.28
2022-10-29T03:38:14.937Z,7.40
2022-10-29T03:40:42.859Z,7.70
2022-10-29T03:43:09.701Z,7.68
2022-10-29T03:45:36.337Z,6.78
2022-10-29T03:48:04.726Z,6.78
2022-10-29T03:50:31.456Z,6.47
2022-10-29T03:52:58.100Z,7.68
2022-10-29T03:55:25.102Z,8.23
2022-10-29T03:57:51.863Z,6.20
2022-10-29T04:00:18.622Z,4.60
2022-10-29T04:02:45.473Z,5.25
2022-10-29T04:05:12.344Z,5.13
2022-10-29T04:07:39.004Z,7.25
2022-10-29T04:10:06.019Z,8.30
2022-10-29T04:12:32.853Z,7.65
2022-10-29T04:14:59.543Z,7.53
2022-10-29T04:17:26.185Z,7.55
2022-10-29T04:19:52.866Z,6.38
2022-10-29T04:30:43.808Z,8.30
2022-10-29T04:33:10.486Z,6.10
2022-10-29T04:35:37.157Z,7.30
2022-10-29T04:38:11.766Z,7.80
2022-10-29T04:40:38.747Z,6.68
2022-10-29T04:43:05.425Z,7.40
2022-10-29T04:45:32.185Z,7.68
2022-10-29T04:48:00.924Z,8.05
2022-10-29T04:50:28.410Z,8.07
2022-10-29T04:53:02.508Z,9.82
2022-10-29T04:55:29.654Z,8.60
2022-10-29T04:57:56.583Z,8.05
2022-10-29T05:00:24.148Z,7.88
2022-10-29T05:02:52.044Z,7.78
2022-10-29T05:05:20.415Z,7.95
2022-10-29T05:07:47.413Z,8.75
2022-10-29T05:10:14.498Z,8.30
2022-10-29T05:12:41.383Z,8.65
2022-10-29T05:15:08.218Z,8.93
2022-10-29T05:17:38.695Z,8.23
2022-10-29T05:20:05.879Z,7.90
2022-10-29T05:22:32.549Z,7.75
2022-10-29T05:24:59.189Z,7.97
2022-10-29T05:27:25.926Z,7.80
2022-10-29T05:29:52.949Z,7.47
2022-10-29T05:32:19.574Z,6.03
2022-10-29T05:34:46.194Z,5.97
2022-10-29T05:37:12.815Z,6.40
2022-10-29T05:39:39.459Z,6.13
2022-10-29T05:42:06.441Z,6.75
2022-10-29T05:44:33.112Z,7.57
2022-10-29T05:46:59.740Z,7.15
2022-10-29T05:49:26.598Z,6.93
2022-10-29T05:51:53.264Z,6.43
2022-10-29T05:54:19.912Z,6.88
2022-10-29T05:56:46.596Z,6.85
2022-10-29T05:59:13.232Z,7.53
2022-10-29T06:01:40.155Z,6.40
2022-10-29T06:04:06.884Z,7.38
2022-10-29T06:06:34.029Z,6.15
2022-10-29T06:09:00.873Z,7.38
2022-10-29T06:11:27.537Z,7.22
2022-10-29T06:13:57.418Z,7.50
2022-10-29T06:16:24.045Z,7.10
2022-10-29T06:18:50.710Z,7.38
2022-10-29T06:21:17.486Z,6.90
2022-10-29T06:23:44.126Z,6.93
2022-10-29T06:26:10.746Z,7.63
2022-10-29T06:28:37.416Z,7.65
2022-10-29T06:31:04.154Z,6.43
2022-10-29T06:33:31.038Z,5.57
2022-10-29T06:36:01.340Z,5.30
2022-10-29T06:38:28.316Z,5.53
2022-10-29T06:40:54.982Z,5.82
2022-10-29T06:43:21.922Z,6.43
2022-10-29T06:45:50.033Z,5.78
2022-10-29T06:48:21.719Z,5.75
2022-10-29T06:53:16.265Z,6.43
2022-10-29T06:55:42.875Z,6.35
2022-10-29T06:58:15.495Z,6.13
2022-10-29T07:03:13.527Z,6.10
2022-10-29T07:05:40.214Z,5.30
2022-10-29T07:08:07.085Z,6.15
2022-10-29T07:10:34.310Z,6.35
2022-10-29T07:13:01.677Z,5.72
2022-10-29T07:15:30.630Z,6.47
2022-10-29T07:18:02.860Z,6.47
2022-10-29T07:20:33.873Z,7.20
2022-10-29T07:23:01.367Z,5.95
2022-10-29T07:25:29.292Z,6.57
2022-10-29T07:28:02.173Z,7.22
2022-10-29T07:30:28.913Z,6.93
2022-10-29T07:32:55.944Z,6.97
2022-10-29T07:35:23.104Z,7.45
2022-10-29T07:37:50.022Z,7.90
2022-10-29T07:40:16.880Z,7.47
2022-10-29T07:42:43.573Z,8.23
2022-10-29T07:45:10.559Z,7.75
2022-10-29T07:47:37.324Z,7.95
2022-10-29T07:50:04.218Z,7.70
2022-10-29T07:52:30.897Z,8.35
2022-10-29T07:54:57.560Z,9.20
2022-10-29T07:57:24.259Z,9.80
2022-10-29T07:59:51.903Z,8.30
2022-10-29T08:02:18.625Z,9.32
2022-10-29T08:04:45.391Z,8.52
2022-10-29T08:07:12.024Z,8.35
2022-10-29T08:09:38.695Z,8.95
2022-10-29T08:12:06.893Z,10.05
2022-10-29T08:14:33.554Z,8.75
2022-10-29T08:17:00.206Z,9.52
2022-10-29T08:19:26.917Z,10.10
2022-10-29T08:21:53.557Z,9.57
2022-10-29T08:24:20.191Z,10.57
2022-10-29T08:26:46.922Z,10.27
2022-10-29T08:29:13.585Z,11.13
2022-10-29T08:31:41.049Z,10.63
2022-10-29T08:34:11.103Z,12.88
2022-10-29T08:36:38.102Z,13.95
2022-10-29T08:39:04.806Z,14.27
2022-10-29T08:42:00.446Z,14.98
2022-10-29T08:45:03.073Z,16.35
2022-10-29T08:47:46.596Z,15.20
2022-10-29T08:50:28.627Z,15.90
2022-10-29T08:53:21.794Z,16.63
2022-10-29T08:55:43.524Z,17.42
2022-10-29T08:58:55.023Z,15.93
2022-10-29T09:01:23.262Z,17.40
2022-10-29T09:03:51.233Z,16.45
2022-10-29T09:06:30.432Z,16.00
2022-10-29T09:09:37.286Z,15.45
2022-10-29T09:12:41.142Z,16.38
2022-10-29T09:15:28.645Z,18.10
2022-10-29T09:18:14.517Z,17.13
2022-10-29T09:20:56.303Z,16.90
2022-10-29T09:23:35.251Z,17.63
2022-10-29T09:26:11.274Z,18.42
2022-10-29T09:28:59.230Z,18.63
2022-10-29T09:31:30.233Z,18.00
2022-10-29T09:34:02.038Z,20.23
2022-10-29T09:36:30.685Z,19.25
2022-10-29T09:39:02.357Z,17.15
2022-10-29T09:41:33.402Z,17.37
2022-10-29T09:44:20.616Z,17.35
2022-10-29T09:46:59.486Z,17.55
2022-10-29T09:49:50.777Z,16.50
2022-10-29T09:52:21.146Z,16.10
2022-10-29T09:54:51.339Z,15.65
2022-10-29T09:57:22.294Z,16.75
2022-10-29T09:59:55.085Z,17.13
2022-10-29T10:02:33.546Z,16.92
2022-10-29T10:05:15.210Z,16.27
2022-10-29T10:07:42.013Z,16.80
2022-10-29T10:10:22.143Z,16.30
2022-10-29T10:12:50.445Z,17.10
2022-10-29T10:15:22.972Z,18.13
2022-10-29T10:20:34.046Z,16.23
2022-10-29T10:23:01.103Z,17.50
2022-10-29T10:25:35.354Z,18.27
2022-10-29T10:28:21.853Z,17.17
2022-10-29T10:31:15.752Z,19.10
2022-10-29T10:33:52.583Z,18.92
2022-10-29T10:36:23.438Z,18.50
2022-10-29T10:38:52.805Z,17.85
2022-10-29T10:41:25.917Z,17.92
2022-10-29T10:43:57.517Z,17.17
2022-10-29T10:46:29.017Z,19.10
2022-10-29T10:49:16.548Z,18.00
2022-10-29T10:51:44.825Z,17.98
2022-10-29T10:54:34.947Z,17.10
2022-10-29T10:57:19.385Z,16.42
2022-10-29T11:00:01.837Z,15.65
2022-10-29T11:02:57.285Z,15.93
2022-10-29T11:05:37.826Z,16.00
2022-10-29T11:08:17.454Z,15.52
2022-10-29T11:10:49.998Z,16.13
2022-10-29T11:13:21.646Z,14.93
2022-10-29T11:15:55.229Z,15.57
2022-10-29T11:18:34.925Z,15.75
2022-10-29T11:21:26.266Z,15.23
2022-10-29T11:23:59.592Z,15.60
2022-10-29T11:26:34.851Z,16.45
2022-10-29T11:29:22.808Z,14.70
2022-10-29T11:31:55.290Z,15.93
2022-10-29T11:34:47.376Z,16.65
2022-10-29T11:37:42.386Z,15.27
2022-10-29T11:40:44.356Z,15.15
2022-10-29T11:43:18.373Z,14.30
2022-10-29T11:46:18.682Z,15.75
2022-10-29T11:49:10.025Z,13.85
2022-10-29T11:51:51.914Z,13.70
2022-10-29T11:54:21.594Z,13.20
2022-10-29T11:57:01.127Z,14.32
2022-10-29T11:59:33.352Z,14.70
2022-10-29T12:02:41.651Z,13.77
2022-10-29T12:05:43.024Z,15.38
2022-10-29T12:08:42.157Z,14.20
2022-10-29T12:11:40.531Z,13.40
2022-10-29T12:14:22.484Z,13.55
2022-10-29T12:17:31.849Z,12.98
2022-10-29T12:20:10.515Z,13.43
2022-10-29T12:22:46.104Z,12.35
2022-10-29T12:25:47.180Z,12.75
2022-10-29T12:28:39.574Z,12.60
2022-10-29T12:31:30.895Z,11.82
2022-10-29T12:34:11.237Z,12.38
2022-10-29T12:36:56.688Z,13.35
2022-10-29T12:39:35.614Z,11.75
2022-10-29T12:42:12.521Z,12.18
2022-10-29T12:44:46.724Z,13.43
2022-10-29T12:47:29.758Z,12.95
2022-10-29T12:50:28.438Z,11.88
2022-10-29T12:53:07.498Z,13.10
2022-10-29T12:55:36.926Z,12.50
2022-10-29T12:58:42.382Z,12.48
2022-10-29T13:01:44.134Z,13.18
2022-10-29T13:04:33.964Z,12.95
2022-10-29T13:07:18.573Z,15.98
2022-10-29T13:09:48.320Z,19.08
2022-10-29T13:12:53.787Z,18.58
2022-10-29T13:15:23.173Z,17.45
2022-10-29T13:17:52.389Z,16.50
2022-10-29T13:20:48.526Z,14.52
2022-10-29T13:23:23.951Z,13.30
2022-10-29T13:25:59.790Z,14.02
2022-10-29T13:28:26.386Z,11.48
2022-10-29T13:31:14.365Z,12.13
2022-10-29T13:33:41.020Z,12.68
2022-10-29T13:36:16.657Z,22.60
2022-10-29T13:39:07.401Z,11.50
2022-10-29T13:41:44.005Z,13.98
2022-10-29T13:44:21.445Z,11.43
2022-10-29T13:47:00.943Z,10.68
2022-10-29T13:49:39.747Z,13.27
2022-10-29T13:52:09.503Z,12.18
2022-10-29T13:54:54.059Z,11.07
2022-10-29T13:57:50.671Z,11.52
2022-10-29T14:00:19.526Z,10.52
2022-10-29T14:03:14.937Z,11.93
2022-10-29T14:06:00.511Z,10.48
2022-10-29T14:08:46.472Z,9.52
2022-10-29T14:11:23.254Z,10.05
2022-10-29T14:13:52.405Z,12.07
2022-10-29T14:16:24.326Z,8.10
2022-10-29T14:18:51.436Z,9.15
2022-10-29T14:21:28.414Z,10.45
2022-10-29T14:24:02.228Z,20.98
2022-10-29T14:26:30.880Z,11.05
2022-10-29T14:29:14.008Z,11.27
2022-10-29T14:31:40.737Z,7.53
2022-10-29T14:34:23.541Z,8.02
2022-10-29T14:36:55.441Z,7.05
2022-10-29T14:39:32.823Z,6.88
2022-10-29T14:44:52.335Z,7.20
2022-10-29T14:47:28.978Z,7.00
2022-10-29T14:50:02.562Z,6.60
2022-10-29T14:52:39.526Z,7.15
2022-10-29T14:55:19.073Z,7.13
2022-10-29T14:57:55.101Z,7.47
2022-10-29T15:00:25.072Z,6.63
2022-10-29T15:02:54.474Z,6.97
2022-10-29T15:05:32.941Z,6.53
2022-10-29T15:08:11.762Z,7.63
2022-10-29T15:10:53.839Z,6.63
2022-10-29T15:13:29.487Z,7.50
2022-10-29T15:16:05.008Z,7.35
2022-10-29T15:18:33.048Z,6.82
2022-10-29T15:21:00.116Z,7.40
2022-10-29T15:23:33.946Z,7.30
2022-10-29T15:26:07.041Z,6.63
2022-10-29T15:28:43.011Z,7.00
2022-10-29T15:31:43.842Z,7.28
2022-10-29T15:34:19.926Z,6.55
2022-10-29T15:36:49.104Z,7.10
2022-10-29T15:39:26.950Z,6.53
2022-10-29T15:41:59.127Z,7.57
2022-10-29T15:44:28.505Z,7.38
2022-10-29T15:46:59.116Z,6.80
2022-10-29T15:49:31.352Z,6.68
2022-10-29T15:52:00.507Z,6.75
2022-10-29T15:54:28.065Z,6.80
2022-10-29T15:56:54.752Z,6.63
2022-10-29T15:59:25.106Z,8.00
2022-10-29T16:01:51.936Z,6.45
2022-10-29T16:04:18.689Z,6.88
2022-10-29T16:06:45.430Z,5.82
2022-10-29T16:09:18.586Z,6.53
2022-10-29T16:11:45.550Z,7.45
2022-10-29T16:14:12.250Z,6.80
2022-10-29T16:16:38.903Z,7.88
2022-10-29T16:19:05.539Z,6.95
2022-10-29T16:21:32.457Z,6.55
2022-10-29T16:23:59.157Z,7.53
2022-10-29T16:26:26.516Z,7.22
2022-10-29T16:28:53.612Z,6.90
2022-10-29T16:31:25.491Z,7.68
2022-10-29T16:33:54.898Z,7.32
2022-10-29T16:36:21.685Z,7.82
2022-10-29T16:38:48.433Z,6.78
2022-10-29T16:41:17.585Z,7.57
2022-10-29T16:43:44.789Z,7.10
2022-10-29T16:46:12.748Z,6.88
2022-10-29T16:48:40.029Z,6.78
2022-10-29T16:51:07.337Z,6.68
2022-10-29T16:53:34.477Z,7.18
2022-10-29T16:56:01.822Z,6.80
2022-10-29T16:58:28.516Z,7.45
2022-10-29T17:01:10.320Z,6.65
2022-10-29T17:03:38.986Z,7.57
2022-10-29T17:06:08.264Z,6.38
2022-10-29T17:08:36.213Z,7.35
2022-10-29T17:11:05.940Z,7.20
2022-10-29T17:13:33.991Z,7.10
2022-10-29T17:16:00.616Z,6.88
2022-10-29T17:18:27.249Z,7.47
2022-10-29T17:20:55.455Z,8.10
2022-10-29T17:23:22.090Z,6.72
2022-10-29T17:25:54.878Z,6.78
2022-10-29T17:28:25.595Z,6.90
2022-10-29T17:30:52.482Z,7.70
2022-10-29T17:33:19.664Z,7.70
2022-10-29T17:35:46.522Z,7.47
2022-10-29T17:38:13.228Z,7.03
2022-10-29T17:40:40.092Z,7.15
2022-10-29T17:43:06.854Z,8.23
2022-10-29T17:45:33.537Z,7.78
2022-10-29T17:48:00.534Z,8.23
2022-10-29T17:50:27.693Z,7.85
2022-10-29T17:52:55.135Z,8.07
2022-10-29T17:55:21.831Z,7.57
2022-10-29T17:57:48.557Z,7.22
2022-10-29T18:00:15.625Z,7.53
2022-10-29T18:02:42.325Z,7.60
2022-10-29T18:05:09.447Z,8.15
2022-10-29T18:07:36.085Z,7.20
2022-10-29T18:10:03.306Z,7.65
2022-10-29T18:12:29.952Z,8.18
2022-10-29T18:14:56.619Z,8.15
2022-10-29T18:17:23.357Z,7.90
2022-10-29T18:19:50.005Z,8.00
2022-10-29T18:22:16.657Z,9.13
2022-10-29T18:24:43.537Z,8.48
2022-10-29T18:27:10.189Z,8.95
2022-10-29T18:29:36.821Z,8.45
2022-10-29T18:32:03.641Z,8.07
2022-10-29T18:34:31.594Z,8.55
2022-10-29T18:36:58.381Z,7.90
2022-10-29T18:39:25.122Z,7.97
2022-10-29T18:41:51.773Z,7.88
2022-10-29T18:44:18.533Z,8.50
2022-10-29T18:46:45.172Z,9.00
2022-10-29T18:49:12.987Z,8.82
2022-10-29T18:51:40.138Z,7.90
2022-10-29T18:54:06.873Z,9.07
2022-10-29T18:56:33.529Z,8.85
2022-10-29T18:59:00.739Z,9.45
2022-10-29T19:01:31.479Z,8.07
2022-10-29T19:04:04.385Z,8.25
2022-10-29T19:06:33.486Z,8.80
2022-10-29T19:09:02.173Z,9.85
2022-10-29T19:11:29.447Z,8.75
2022-10-29T19:14:01.446Z,8.10
2022-10-29T19:16:29.239Z,9.18
2022-10-29T19:18:57.803Z,7.70
2022-10-29T19:21:25.095Z,8.02
2022-10-29T19:23:59.262Z,7.75
2022-10-29T19:26:28.705Z,7.88
2022-10-29T19:28:55.455Z,7.97
2022-10-29T19:31:26.180Z,8.45
2022-10-29T19:33:55.162Z,7.75
2022-10-29T19:36:22.874Z,8.52
2022-10-29T19:38:49.565Z,8.40
2022-10-29T19:41:17.240Z,7.47
2022-10-29T19:43:44.675Z,7.82
2022-10-29T19:46:16.755Z,7.15
2022-10-29T19:48:43.654Z,8.23
2022-10-29T19:51:10.821Z,7.82
2022-10-29T19:53:39.025Z,7.78
2022-10-29T19:56:07.508Z,8.90
2022-10-29T19:58:34.235Z,8.07
2022-10-29T20:01:10.559Z,7.68
2022-10-29T20:03:37.389Z,8.43
2022-10-29T20:06:04.224Z,8.40
2022-10-29T20:08:30.873Z,8.93
2022-10-29T20:10:59.462Z,9.63
2022-10-29T20:13:27.025Z,8.95
2022-10-29T20:15:54.165Z,9.80
2022-10-29T20:18:21.134Z,9.15
2022-10-29T20:20:56.785Z,9.25
2022-10-29T20:23:25.716Z,9.55
2022-10-29T20:25:52.589Z,9.07
2022-10-29T20:28:19.329Z,8.65
2022-10-29T20:30:46.005Z,8.10
2022-10-29T20:33:12.953Z,8.90
2022-10-29T20:35:39.692Z,8.23
2022-10-29T20:38:06.564Z,8.32
2022-10-29T20:40:33.324Z,8.68
2022-10-29T20:43:00.009Z,7.82
2022-10-29T20:45:26.680Z,8.85
2022-10-29T20:47:53.313Z,8.43
2022-10-29T20:50:19.986Z,8.75
2022-10-29T20:52:48.785Z,7.82
2022-10-29T20:55:16.294Z,8.57
2022-10-29T20:57:42.943Z,8.38
2022-10-29T21:00:10.344Z,8.48
2022-10-29T21:02:37.427Z,9.43
2022-10-29T21:05:04.636Z,8.80
2022-10-29T21:07:31.362Z,8.38
2022-10-29T21:09:58.008Z,9.05
2022-10-29T21:12:24.646Z,9.65
2022-10-29T21:14:51.279Z,8.88
2022-10-29T21:17:17.931Z,9.18
2022-10-29T21:19:44.799Z,10.02
2022-10-29T21:22:14.735Z,9.43
2022-10-29T21:24:44.632Z,9.30
2022-10-29T21:27:12.599Z,9.00
2022-10-29T21:29:39.322Z,9.65
2022-10-29T21:32:06.244Z,8.02
2022-10-29T21:34:33.185Z,8.80
2022-10-29T21:36:59.849Z,8.73
2022-10-29T21:39:27.551Z,8.90
2022-10-29T21:41:54.448Z,9.60
2022-10-29T21:44:21.181Z,9.15
2022-10-29T21:46:47.821Z,9.00
2022-10-29T21:49:14.629Z,8.65
2022-10-29T21:51:41.414Z,8.73
2022-10-29T21:54:08.159Z,9.05
2022-10-29T21:56:34.805Z,7.85
2022-10-29T21:59:01.553Z,8.27
2022-10-29T22:01:28.236Z,7.43
2022-10-29T22:03:54.956Z,7.63
2022-10-29T22:06:23.155Z,8.57
2022-10-29T22:08:58.103Z,8.00
2022-10-29T22:11:26.629Z,8.45
2022-10-29T22:13:54.402Z,7.72
2022-10-29T22:16:22.360Z,7.60
2022-10-29T22:18:49.823Z,6.88
2022-10-29T22:21:19.669Z,6.97
2022-10-29T22:23:52.480Z,7.18
2022-10-29T22:26:22.269Z,7.35
2022-10-29T22:28:49.878Z,7.15
2022-10-29T22:31:18.875Z,7.28
2022-10-29T22:33:45.810Z,7.28
2022-10-29T22:36:18.033Z,7.00
2022-10-29T22:38:44.830Z,7.68
2022-10-29T22:41:14.159Z,7.18
2022-10-29T22:43:41.026Z,7.25
2022-10-29T22:46:09.302Z,6.30
2022-10-29T22:48:36.612Z,6.70
2022-10-29T22:51:07.301Z,7.43
2022-10-29T22:53:34.314Z,7.05
2022-10-29T22:56:02.078Z,7.55
2022-10-29T22:58:28.988Z,7.40
2022-10-29T23:01:09.001Z,7.72
2022-10-29T23:03:37.659Z,7.00
2022-10-29T23:06:06.307Z,7.13
2022-10-29T23:08:33.589Z,7.22
2022-10-29T23:11:08.255Z,6.97
2022-10-29T23:13:34.982Z,7.78
2022-10-29T23:16:01.713Z,6.97
2022-10-29T23:18:28.360Z,6.97
2022-10-29T23:21:02.250Z,6.70
2022-10-29T23:23:29.725Z,6.55
2022-10-29T23:26:00.898Z,7.20
2022-10-29T23:28:28.785Z,6.15
2022-10-29T23:30:56.858Z,7.40
2022-10-29T23:33:23.626Z,6.55
2022-10-29T23:35:50.561Z,6.95
2022-10-29T23:38:17.774Z,5.80
2022-10-29T23:40:45.693Z,7.10
2022-10-29T23:43:12.676Z,5.43
2022-10-29T23:45:40.769Z,7.13
2022-10-29T23:48:10.870Z,5.95
2022-10-29T23:50:38.526Z,6.25
2022-10-29T23:53:06.862Z,5.82
2022-10-29T23:55:34.622Z,6.03
2022-10-29T23:58:02.243Z,5.68
